createdAt,value
2023-04-01T09:01:49.361Z,95228.72
2023-04-01T09:03:09.655Z,95237.19
2023-04-01T09:04:41.095Z,95233.28
2023-04-01T09:06:19.827Z,95232.38
2023-04-01T09:07:41.292Z,95249.38
2023-04-01T09:09:04.366Z,95229.19
2023-04-01T09:10:36.857Z,95245.03
2023-04-01T09:12:00.265Z,95235.41
2023-04-01T09:13:27.676Z,95229.38
2023-04-01T09:14:57.744Z,95237.56
2023-04-01T09:16:43.727Z,95238.50
2023-04-01T09:17:56.768Z,95242.59
2023-04-01T09:19:23.234Z,95246.00
2023-04-01T09:20:43.546Z,95244.41
2023-04-01T09:22:00.290Z,95248.09
2023-04-01T09:23:07.268Z,95243.59
2023-04-01T09:24:47.508Z,95231.34
2023-04-01T09:26:09.702Z,95247.66
2023-04-01T09:27:21.280Z,95249.50
2023-04-01T09:28:52.147Z,95253.69
2023-04-01T09:30:13.703Z,95240.72
2023-04-01T09:31:40.097Z,95244.38
2023-04-01T09:32:41.560Z,95251.50
2023-04-01T09:34:07.557Z,95257.38
2023-04-01T09:35:41.954Z,95246.22
2023-04-01T09:36:47.983Z,95246.44
2023-04-01T09:38:07.547Z,95246.06
2023-04-01T09:39:27.300Z,95241.47
2023-04-01T09:40:56.197Z,95244.06
2023-04-01T09:42:00.995Z,95256.47
2023-04-01T09:43:08.156Z,95261.53
2023-04-01T09:44:19.283Z,95253.88
2023-04-01T09:45:42.922Z,95254.38
2023-04-01T09:46:59.183Z,95266.53
2023-04-01T09:48:37.941Z,95251.53
2023-04-01T09:50:13.367Z,95257.56
2023-04-01T09:51:39.252Z,95268.63
2023-04-01T09:52:45.324Z,95255.31
2023-04-01T09:54:08.442Z,95266.34
2023-04-01T09:55:09.750Z,95259.09
2023-04-01T09:56:35.785Z,95271.09
2023-04-01T09:58:09.708Z,95256.84
2023-04-01T09:59:14.109Z,95259.19
2023-04-01T10:00:27.621Z,95258.88
2023-04-01T10:02:07.394Z,95257.22
2023-04-01T10:03:38.767Z,95270.00
2023-04-01T10:04:58.391Z,95258.59
2023-04-01T10:06:21.275Z,95250.91
2023-04-01T10:07:52.018Z,95259.81
2023-04-01T10:09:24.854Z,95257.94
2023-04-01T10:10:44.776Z,95256.94
2023-04-01T10:12:01.492Z,95270.53
2023-04-01T10:13:39.837Z,95253.38
2023-04-01T10:15:01.532Z,95255.06
2023-04-01T10:16:26.617Z,95261.28
2023-04-01T10:17:39.828Z,95258.41
2023-04-01T10:19:11.773Z,95286.53
2023-04-01T10:20:32.448Z,95257.66
2023-04-01T10:22:05.269Z,95266.72
2023-04-01T10:23:32.035Z,95264.56
2023-04-01T10:25:28.533Z,95266.03
2023-04-01T10:27:07.348Z,95269.78
2023-04-01T10:28:30.246Z,95275.56
2023-04-01T10:29:43.448Z,95273.63
2023-04-01T10:31:22.227Z,95270.59
2023-04-01T10:33:01.832Z,95261.28
2023-04-01T10:34:27.769Z,95269.88
2023-04-01T10:35:43.893Z,95263.69
2023-04-01T10:36:57.816Z,95279.94
2023-04-01T10:38:16.235Z,95283.41
2023-04-01T10:39:36.294Z,95274.75
2023-04-01T10:41:12.855Z,95288.72
2023-04-01T10:42:14.145Z,95272.34
2023-04-01T10:43:40.400Z,95270.25
2023-04-01T10:45:02.979Z,95269.75
2023-04-01T10:46:31.980Z,95279.00
2023-04-01T10:47:52.185Z,95284.19
2023-04-01T10:49:08.357Z,95270.31
2023-04-01T10:50:43.037Z,95276.75
2023-04-01T10:52:18.282Z,95281.19
2023-04-01T10:53:40.412Z,95268.38
2023-04-01T10:54:50.475Z,95272.50
2023-04-01T10:56:07.116Z,95267.88
2023-04-01T10:57:40.882Z,95270.00
2023-04-01T10:59:03.991Z,95294.19
2023-04-01T11:00:33.480Z,95270.28
2023-04-01T11:01:45.976Z,95274.75
2023-04-01T11:03:09.423Z,95272.16
2023-04-01T11:04:32.580Z,95285.75
2023-04-01T11:05:59.562Z,95290.03
2023-04-01T11:07:28.234Z,95287.16
2023-04-01T11:08:51.148Z,95278.59
2023-04-01T11:10:11.239Z,95285.59
2023-04-01T11:11:40.634Z,95280.75
2023-04-01T11:13:11.525Z,95283.75
2023-04-01T11:14:35.966Z,95287.38
2023-04-01T11:16:11.477Z,95284.91
2023-04-01T11:17:37.074Z,95290.38
2023-04-01T11:19:11.316Z,95291.81
2023-04-01T11:20:31.645Z,95280.94
2023-04-01T11:21:57.935Z,95282.03
2023-04-01T11:23:17.777Z,95287.19
2023-04-01T11:24:19.107Z,95285.78
2023-04-01T11:26:17.785Z,95293.41
2023-04-01T11:27:43.634Z,95283.25
2023-04-01T11:29:08.411Z,95293.97
2023-04-01T11:30:44.834Z,95288.44
2023-04-01T11:32:02.827Z,95264.72
2023-04-01T11:33:23.406Z,95286.66
2023-04-01T11:35:06.877Z,95293.63
2023-04-01T11:36:35.505Z,95278.44
2023-04-01T11:37:54.737Z,95292.31
2023-04-01T11:39:09.508Z,95276.19
2023-04-01T11:40:27.834Z,95286.91
2023-04-01T11:41:46.958Z,95296.25
2023-04-01T11:42:52.646Z,95302.56
2023-04-01T11:44:18.028Z,95298.03
2023-04-01T11:45:40.762Z,95300.44
2023-04-01T11:47:01.424Z,95294.00
2023-04-01T11:48:12.593Z,95294.75
2023-04-01T11:49:42.917Z,95306.44
2023-04-01T11:51:11.983Z,95303.63
2023-04-01T11:52:26.255Z,95308.22
2023-04-01T11:53:27.541Z,95309.59
2023-04-01T11:54:46.928Z,95298.34
2023-04-01T11:56:14.186Z,95309.25
2023-04-01T11:57:37.723Z,95312.56
2023-04-01T11:59:18.690Z,95309.34
2023-04-01T12:00:44.888Z,95317.50
2023-04-01T12:02:10.829Z,95320.56
2023-04-01T12:03:27.828Z,95312.28
2023-04-01T12:05:00.502Z,95308.50
2023-04-01T12:06:20.955Z,95313.25
2023-04-01T12:07:40.896Z,95319.84
2023-04-01T12:08:54.461Z,95314.72
2023-04-01T12:10:04.664Z,95322.06
2023-04-01T12:11:48.278Z,95304.06
2023-04-01T12:13:01.842Z,95306.94
2023-04-01T12:14:18.717Z,95315.38
2023-04-01T12:15:30.948Z,95316.03
2023-04-01T12:16:41.700Z,95310.78
2023-04-01T12:18:12.496Z,95314.06
2023-04-01T12:19:33.640Z,95309.88
2023-04-01T12:20:49.703Z,95315.25
2023-04-01T12:22:00.331Z,95323.25
2023-04-01T12:23:23.974Z,95334.66
2023-04-01T12:25:02.621Z,95327.13
2023-04-01T12:26:31.917Z,95321.81
2023-04-01T12:27:42.540Z,95316.16
2023-04-01T12:29:05.769Z,95319.84
2023-04-01T12:30:16.797Z,95321.25
2023-04-01T12:31:43.010Z,95322.72
2023-04-01T12:33:14.135Z,95323.47
2023-04-01T12:34:36.821Z,95326.91
2023-04-01T12:35:44.527Z,95320.94
2023-04-01T12:37:28.044Z,95327.81
2023-04-01T12:38:52.575Z,95331.75
2023-04-01T12:40:24.480Z,95328.88
2023-04-01T12:42:00.051Z,95343.56
2023-04-01T12:43:29.368Z,95339.72
2023-04-01T12:45:01.578Z,95340.63
2023-04-01T12:46:17.110Z,95331.94
2023-04-01T12:47:40.584Z,95336.81
2023-04-01T12:48:57.236Z,95312.31
2023-04-01T12:50:34.528Z,95333.78
2023-04-01T12:51:59.395Z,95330.84
2023-04-01T12:53:28.377Z,95342.97
2023-04-01T12:55:04.323Z,95363.75
2023-04-01T12:56:15.558Z,95349.31
2023-04-01T12:57:16.942Z,95350.09
2023-04-01T12:58:39.654Z,95345.72
2023-04-01T12:59:53.544Z,95354.44
2023-04-01T13:01:23.106Z,95350.75
2023-04-01T13:02:41.207Z,95352.41
2023-04-01T13:04:10.561Z,95353.38
2023-04-01T13:05:30.655Z,95342.97
2023-04-01T13:06:52.526Z,95342.19
2023-04-01T13:08:05.138Z,95352.34
2023-04-01T13:09:25.495Z,95354.53
2023-04-01T13:11:01.911Z,95333.88
2023-04-01T13:12:06.295Z,95349.47
2023-04-01T13:13:27.094Z,95357.28
2023-04-01T13:14:47.304Z,95350.41
2023-04-01T13:16:02.468Z,95348.66
2023-04-01T13:17:21.205Z,95350.41
2023-04-01T13:18:40.745Z,95351.38
2023-04-01T13:20:06.235Z,95340.28
2023-04-01T13:21:33.167Z,95358.09
2023-04-01T13:22:40.877Z,95353.56
2023-04-01T13:24:03.730Z,95362.25
2023-04-01T13:25:20.322Z,95355.41
2023-04-01T13:26:37.831Z,95368.06
2023-04-01T13:27:49.059Z,95363.22
2023-04-01T13:29:16.692Z,95377.91
2023-04-01T13:30:35.405Z,95372.22
2023-04-01T13:31:50.402Z,95374.72
2023-04-01T13:32:59.391Z,95367.00
2023-04-01T13:34:20.278Z,95358.78
2023-04-01T13:35:37.371Z,95368.91
2023-04-01T13:37:08.611Z,95375.03
2023-04-01T13:38:28.512Z,95369.81
2023-04-01T13:39:48.713Z,95372.88
2023-04-01T13:41:19.713Z,95368.06
2023-04-01T13:42:41.081Z,95377.41
2023-04-01T13:43:52.606Z,95378.34
2023-04-01T13:45:13.053Z,95379.69
2023-04-01T13:46:38.892Z,95371.03
2023-04-01T13:47:46.124Z,95384.88
2023-04-01T13:49:23.274Z,95380.50
2023-04-01T13:50:24.725Z,95383.63
2023-04-01T13:51:41.137Z,95376.91
2023-04-01T13:52:54.831Z,95377.22
2023-04-01T13:54:24.333Z,95377.06
2023-04-01T13:55:31.775Z,95379.94
2023-04-01T13:56:44.979Z,95380.69
2023-04-01T13:57:58.605Z,95380.78
2023-04-01T13:59:13.313Z,95384.47
2023-04-01T14:00:20.911Z,95377.34
2023-04-01T14:01:47.139Z,95387.97
2023-04-01T14:03:26.676Z,95392.19
2023-04-01T14:05:01.860Z,95394.19
2023-04-01T14:06:13.937Z,95378.91
2023-04-01T14:07:21.230Z,95383.44
2023-04-01T14:08:28.747Z,95395.09
2023-04-01T14:10:04.377Z,95387.13
2023-04-01T14:11:21.748Z,95384.78
2023-04-01T14:12:46.323Z,95385.72
2023-04-01T14:14:06.608Z,95386.47
2023-04-01T14:15:22.557Z,95382.03
2023-04-01T14:16:33.830Z,95383.44
2023-04-01T14:18:01.683Z,95385.94
2023-04-01T14:19:26.266Z,95381.59
2023-04-01T14:20:34.367Z,95381.69
2023-04-01T14:21:42.226Z,95383.34
2023-04-01T14:23:19.623Z,95389.66
2023-04-01T14:24:36.937Z,95377.31
2023-04-01T14:25:55.702Z,95401.22
2023-04-01T14:27:34.360Z,95389.91
2023-04-01T14:29:11.428Z,95390.75
2023-04-01T14:30:40.727Z,95398.94
2023-04-01T14:31:51.310Z,95397.63
2023-04-01T14:33:14.320Z,95395.00
2023-04-01T14:34:15.805Z,95397.38
2023-04-01T14:35:17.142Z,95396.38
2023-04-01T14:36:57.084Z,95393.53
2023-04-01T14:38:25.780Z,95388.00
2023-04-01T14:40:21.529Z,95389.59
2023-04-01T14:41:50.866Z,95398.88
2023-04-01T14:43:10.839Z,95393.88
2023-04-01T14:44:31.485Z,95393.09
2023-04-01T14:45:54.348Z,95392.84
2023-04-01T14:47:17.072Z,95401.31
2023-04-01T14:48:50.511Z,95402.25
2023-04-01T14:50:06.613Z,95396.97
2023-04-01T14:51:16.443Z,95398.78
2023-04-01T14:52:36.866Z,95405.75
